Time;durP1;ratioP1;P1;durP2;ratioP2;P2;SDS_P1;SDS_P2;PMS_P1;PMS_P2;Temp;Humidity;BMP_temperature;BMP_pressure;BME280_temperature;BME280_humidity;BME280_pressure;Samples;Min_cycle;Max_cycle;Signal;HPM_P1;HPM_P2
2021/12/23 00:02:06;;;;;;;8.02;5.85;;;18.40;29.80;;;;;;5119605;28;20099;-39
2021/12/23 00:04:32;;;;;;;6.75;5.50;;;18.40;29.90;;;;;;5119980;28;20024;-40
2021/12/23 00:06:58;;;;;;;7.15;5.47;;;18.40;29.80;;;;;;5119809;28;20081;-41
2021/12/23 00:09:35;;;;;;;6.60;5.60;;;18.40;29.90;;;;;;5119396;28;20040;-39
2021/12/23 00:12:01;;;;;;;7.68;5.95;;;18.40;29.80;;;;;;5119351;28;20020;-39
2021/12/23 00:14:28;;;;;;;7.32;5.85;;;18.50;29.80;;;;;;5118435;28;20071;-41
2021/12/23 00:17:18;;;;;;;6.65;5.45;;;18.50;29.90;;;;;;5118535;28;20124;-39
2021/12/23 00:19:58;;;;;;;6.78;5.55;;;18.50;29.90;;;;;;5118458;28;20031;-40
2021/12/23 00:25:09;;;;;;;7.82;5.93;;;18.40;29.90;;;;;;5118709;28;20035;-39
2021/12/23 00:27:36;;;;;;;6.65;5.72;;;18.50;30.30;;;;;;5119045;28;20061;-39
2021/12/23 00:30:02;;;;;;;6.80;5.18;;;18.40;29.90;;;;;;5119099;28;20114;-38
2021/12/23 00:32:27;;;;;;;9.00;5.88;;;18.40;29.90;;;;;;5118854;28;20051;-41
2021/12/23 00:34:54;;;;;;;8.60;6.05;;;18.50;29.90;;;;;;5100890;28;20073;-40
2021/12/23 00:37:20;;;;;;;7.57;5.97;;;18.40;29.90;;;;;;5119418;28;20022;-39
2021/12/23 00:39:46;;;;;;;7.63;5.80;;;18.40;29.90;;;;;;5119112;28;20016;-41
2021/12/23 00:42:12;;;;;;;7.38;6.05;;;18.40;30.00;;;;;;5118223;28;20073;-41
2021/12/23 00:44:47;;;;;;;7.22;6.00;;;18.40;29.90;;;;;;5117642;28;20048;-38
2021/12/23 00:47:12;;;;;;;7.40;5.60;;;18.50;29.90;;;;;;5117658;28;20024;-42
2021/12/23 00:49:38;;;;;;;6.78;5.65;;;18.50;29.90;;;;;;5117768;28;20015;-41
2021/12/23 00:52:07;;;;;;;6.22;5.25;;;18.50;29.90;;;;;;5117101;28;20019;-39
2021/12/23 00:54:33;;;;;;;7.35;5.50;;;18.50;29.80;;;;;;5083482;28;20048;-39
2021/12/23 00:56:59;;;;;;;7.72;5.70;;;18.50;29.90;;;;;;5118613;28;20024;-40
2021/12/23 00:59:25;;;;;;;7.40;6.03;;;18.50;29.90;;;;;;5120166;28;20016;-39
2021/12/23 01:01:52;;;;;;;8.02;6.35;;;18.50;30.40;;;;;;5101438;28;20031;-40
2021/12/23 01:04:17;;;;;;;7.22;6.10;;;18.50;29.90;;;;;;5118835;28;20020;-39
2021/12/23 01:06:43;;;;;;;8.88;5.78;;;18.50;30.40;;;;;;5118565;28;20390;-40
2021/12/23 01:09:09;;;;;;;7.35;5.70;;;18.50;29.90;;;;;;5119679;28;20012;-44
2021/12/23 01:11:35;;;;;;;7.38;5.95;;;18.50;30.00;;;;;;5119648;28;20053;-43
2021/12/23 01:14:24;;;;;;;7.22;5.55;;;18.50;29.90;;;;;;5118861;28;20532;-39
2021/12/23 01:16:50;;;;;;;7.10;5.72;;;18.60;30.00;;;;;;5117803;28;20051;-38
2021/12/23 01:19:16;;;;;;;7.70;5.80;;;18.60;29.90;;;;;;5118805;28;20007;-39
2021/12/23 01:21:42;;;;;;;7.50;5.93;;;18.50;29.90;;;;;;5118741;28;20052;-39
2021/12/23 01:24:09;;;;;;;6.88;5.55;;;18.50;29.90;;;;;;5118211;28;20020;-41
2021/12/23 01:26:35;;;;;;;6.95;5.70;;;18.50;29.90;;;;;;5117617;28;20035;-41
2021/12/23 01:29:02;;;;;;;8.00;6.00;;;18.60;29.90;;;;;;5117216;28;20023;-39
2021/12/23 01:31:29;;;;;;;7.50;6.00;;;18.50;29.90;;;;;;5116694;28;20039;-39
2021/12/23 01:33:55;;;;;;;6.57;5.47;;;18.50;29.90;;;;;;5118434;28;20011;-41
2021/12/23 01:36:22;;;;;;;6.78;5.20;;;18.60;29.90;;;;;;5118334;28;20109;-39
2021/12/23 01:38:48;;;;;;;7.50;6.25;;;18.60;29.90;;;;;;5118668;28;20099;-41
2021/12/23 01:41:15;;;;;;;7.90;6.32;;;18.60;29.90;;;;;;5117977;28;20015;-42
2021/12/23 01:43:41;;;;;;;6.78;5.30;;;18.60;29.90;;;;;;5118534;28;20019;-41
2021/12/23 01:46:08;;;;;;;7.10;5.90;;;18.60;29.90;;;;;;5118864;28;20007;-42
2021/12/23 01:48:33;;;;;;;6.57;5.68;;;18.60;29.90;;;;;;5119282;28;20012;-39
2021/12/23 01:51:00;;;;;;;7.60;6.10;;;18.60;29.90;;;;;;5118663;28;20036;-41
2021/12/23 01:53:25;;;;;;;6.60;5.53;;;18.50;29.90;;;;;;5100027;28;20007;-41
2021/12/23 01:55:52;;;;;;;6.70;5.50;;;18.50;30.00;;;;;;5119601;28;20026;-46
2021/12/23 01:58:18;;;;;;;7.50;5.70;;;18.50;29.90;;;;;;5119724;28;20027;-44
2021/12/23 02:00:47;;;;;;;7.32;5.93;;;18.60;30.00;;;;;;5119374;28;20473;-43
2021/12/23 02:03:13;;;;;;;7.65;5.78;;;18.60;30.00;;;;;;5119439;28;20024;-46
2021/12/23 02:05:39;;;;;;;7.88;5.85;;;18.50;30.00;;;;;;5119059;28;20061;-43
2021/12/23 02:08:06;;;;;;;7.65;5.75;;;18.50;30.00;;;;;;5119106;28;20125;-41
2021/12/23 02:10:32;;;;;;;7.40;5.50;;;18.50;30.00;;;;;;5100670;28;20020;-44
2021/12/23 02:12:58;;;;;;;6.30;5.20;;;18.60;30.00;;;;;;5101308;28;20018;-45
2021/12/23 02:15:24;;;;;;;8.43;5.90;;;18.60;30.00;;;;;;5118652;28;20011;-45
2021/12/23 02:17:49;;;;;;;7.25;5.68;;;18.50;30.00;;;;;;5121121;28;20062;-45
2021/12/23 02:20:20;;;;;;;6.88;5.07;;;18.60;29.90;;;;;;5125010;28;20023;-40
2021/12/23 02:22:46;;;;;;;6.53;5.28;;;18.60;29.90;;;;;;5124416;28;20470;-40
2021/12/23 02:25:11;;;;;;;6.25;5.10;;;18.60;29.90;;;;;;5124044;28;20055;-39
2021/12/23 02:27:37;;;;;;;7.63;5.78;;;18.60;29.90;;;;;;5122881;28;20482;-44
2021/12/23 02:30:04;;;;;;;6.90;5.45;;;18.60;29.90;;;;;;5123013;28;20008;-46
2021/12/23 02:32:30;;;;;;;6.82;5.32;;;18.60;30.00;;;;;;5124776;28;20024;-43
2021/12/23 02:34:56;;;;;;;6.72;5.22;;;18.60;30.00;;;;;;5125458;28;20020;-40
2021/12/23 02:37:23;;;;;;;7.53;5.43;;;18.60;30.00;;;;;;5125349;28;20028;-40
2021/12/23 02:39:49;;;;;;;6.90;5.28;;;18.60;30.00;;;;;;5123757;28;20020;-47
2021/12/23 02:42:16;;;;;;;7.05;5.72;;;18.60;30.00;;;;;;5122772;28;20474;-41
2021/12/23 02:44:42;;;;;;;6.40;5.30;;;18.60;30.00;;;;;;5103263;28;20024;-40
2021/12/23 02:47:07;;;;;;;6.28;5.63;;;18.60;30.00;;;;;;5119855;28;20023;-44
2021/12/23 02:49:34;;;;;;;6.97;5.70;;;18.60;30.10;;;;;;5120577;28;20022;-40
2021/12/23 02:52:00;;;;;;;5.95;5.05;;;18.50;30.00;;;;;;5120717;28;20015;-40
2021/12/23 02:54:26;;;;;;;7.50;5.57;;;18.60;30.00;;;;;;5120709;28;20016;-46
2021/12/23 02:56:53;;;;;;;6.30;5.35;;;18.60;30.00;;;;;;5102616;28;20381;-39
2021/12/23 02:59:19;;;;;;;6.70;5.22;;;18.50;30.00;;;;;;5120387;28;20012;-42
2021/12/23 03:01:45;;;;;;;7.47;5.47;;;18.60;30.10;;;;;;5102236;28;20390;-41
2021/12/23 03:04:11;;;;;;;7.45;5.47;;;18.50;30.00;;;;;;5120594;28;20030;-39
2021/12/23 03:06:38;;;;;;;7.10;5.90;;;18.60;30.10;;;;;;5102155;28;20028;-40
2021/12/23 03:09:04;;;;;;;6.90;5.50;;;18.60;30.00;;;;;;5120939;28;20007;-39
2021/12/23 03:11:30;;;;;;;7.03;5.57;;;18.60;30.10;;;;;;5120689;28;20011;-44
2021/12/23 03:13:56;;;;;;;6.80;5.28;;;18.60;30.10;;;;;;5102896;28;20023;-39
2021/12/23 03:16:24;;;;;;;7.15;5.70;;;18.50;30.00;;;;;;5102631;28;20062;-41
2021/12/23 03:18:50;;;;;;;6.35;5.22;;;18.50;30.10;;;;;;5121442;28;20049;-39
2021/12/23 03:21:16;;;;;;;7.57;5.70;;;18.60;30.10;;;;;;5121437;28;20366;-41
2021/12/23 03:23:43;;;;;;;6.95;5.45;;;18.60;30.10;;;;;;5103556;28;20053;-39
2021/12/23 03:26:09;;;;;;;6.47;5.40;;;18.60;30.10;;;;;;5103844;28;20385;-40
2021/12/23 03:28:35;;;;;;;6.60;5.53;;;18.60;30.00;;;;;;5120785;28;20054;-43
2021/12/23 03:31:01;;;;;;;7.40;5.53;;;18.60;30.10;;;;;;5120634;28;20003;-39
2021/12/23 03:33:28;;;;;;;8.75;5.60;;;18.50;30.00;;;;;;5120581;28;20533;-43
2021/12/23 03:35:55;;;;;;;6.82;5.45;;;18.60;30.10;;;;;;5121169;28;20071;-42
2021/12/23 03:38:21;;;;;;;7.50;5.82;;;18.60;30.10;;;;;;5121403;28;20444;-40
2021/12/23 03:40:47;;;;;;;7.95;6.10;;;18.50;30.10;;;;;;5121191;28;20035;-40
2021/12/23 03:43:16;;;;;;;7.07;5.40;;;18.60;30.10;;;;;;5120699;28;20496;-46
2021/12/23 03:45:42;;;;;;;6.95;5.43;;;18.50;30.10;;;;;;5120803;28;20027;-41
2021/12/23 03:48:09;;;;;;;7.97;6.13;;;18.50;30.10;;;;;;5120223;28;20023;-40
2021/12/23 03:50:35;;;;;;;6.80;5.55;;;18.50;30.10;;;;;;5119567;28;20008;-39
2021/12/23 03:53:00;;;;;;;6.60;5.80;;;18.60;30.20;;;;;;5119391;28;20023;-40
2021/12/23 03:55:26;;;;;;;7.15;5.55;;;18.60;30.20;;;;;;5119441;28;20470;-40
2021/12/23 03:57:52;;;;;;;6.57;5.45;;;18.60;30.20;;;;;;5119715;28;20038;-46
2021/12/23 04:00:19;;;;;;;7.30;5.57;;;18.60;30.20;;;;;;5119390;28;20023;-41
2021/12/23 04:02:45;;;;;;;7.22;5.60;;;18.60;30.20;;;;;;5119338;28;20412;-42
2021/12/23 04:05:12;;;;;;;7.63;5.63;;;18.60;30.20;;;;;;5118297;28;20035;-42
2021/12/23 04:07:41;;;;;;;7.15;5.70;;;18.60;30.20;;;;;;5119055;28;20110;-40
2021/12/23 04:10:07;;;;;;;7.65;5.65;;;18.50;30.10;;;;;;5119840;28;20019;-40
2021/12/23 04:12:33;;;;;;;7.40;5.65;;;18.60;30.20;;;;;;5120018;28;20026;-40
2021/12/23 04:15:00;;;;;;;6.85;5.63;;;18.60;30.10;;;;;;5101616;28;20537;-42
2021/12/23 04:17:26;;;;;;;7.35;5.25;;;18.60;30.00;;;;;;5118923;28;20130;-40
2021/12/23 04:19:55;;;;;;;7.22;5.53;;;18.70;30.00;;;;;;5100480;28;20059;-39
2021/12/23 04:22:20;;;;;;;6.97;5.60;;;18.70;30.00;;;;;;5119256;28;20038;-43
2021/12/23 04:24:47;;;;;;;6.38;5.43;;;18.70;30.00;;;;;;5101521;28;20018;-45
2021/12/23 04:27:13;;;;;;;6.80;5.40;;;18.80;30.00;;;;;;5119573;28;20156;-43
2021/12/23 04:29:40;;;;;;;6.75;5.25;;;18.80;29.90;;;;;;5119391;28;20023;-41
2021/12/23 04:32:06;;;;;;;6.88;5.30;;;18.90;29.90;;;;;;5118727;28;20020;-41
2021/12/23 04:34:33;;;;;;;7.00;5.32;;;18.90;29.80;;;;;;5118195;28;20470;-39
2021/12/23 04:36:59;;;;;;;7.18;5.57;;;19.00;29.70;;;;;;5099959;28;20447;-39
2021/12/23 04:39:25;;;;;;;7.03;5.68;;;19.00;29.70;;;;;;5099761;28;20011;-45
2021/12/23 04:41:51;;;;;;;6.90;5.30;;;19.10;29.70;;;;;;5116968;28;20028;-40
2021/12/23 04:44:17;;;;;;;6.70;5.30;;;19.10;29.60;;;;;;5118075;28;20024;-40
2021/12/23 04:46:43;;;;;;;7.40;5.40;;;19.20;29.60;;;;;;5117756;28;20478;-39
2021/12/23 04:49:09;;;;;;;6.25;5.45;;;19.20;29.50;;;;;;5117813;28;20023;-39
2021/12/23 04:51:34;;;;;;;7.30;5.53;;;19.20;29.40;;;;;;5118745;28;20016;-39
2021/12/23 04:54:00;;;;;;;6.95;5.30;;;19.30;29.40;;;;;;5099460;28;20104;-41
2021/12/23 04:56:26;;;;;;;6.93;5.40;;;19.30;29.40;;;;;;5118406;28;20011;-39
2021/12/23 04:58:53;;;;;;;7.18;5.55;;;19.30;29.30;;;;;;5118404;28;20091;-41
2021/12/23 05:01:21;;;;;;;6.10;5.00;;;19.40;29.30;;;;;;5118729;28;20043;-39
2021/12/23 05:03:47;;;;;;;7.38;5.20;;;19.50;29.20;;;;;;5119712;28;20020;-45
2021/12/23 05:06:16;;;;;;;6.68;5.30;;;19.50;29.20;;;;;;5121098;28;20003;-42
2021/12/23 05:08:42;;;;;;;7.00;5.23;;;19.60;29.20;;;;;;5119495;28;20545;-43
2021/12/23 05:11:08;;;;;;;8.30;5.15;;;19.60;29.10;;;;;;5119865;28;20043;-43
2021/12/23 05:13:34;;;;;;;5.68;4.97;;;19.70;29.00;;;;;;5116594;28;20466;-39
2021/12/23 05:16:00;;;;;;;7.25;6.05;;;19.70;29.00;;;;;;5117197;28;20015;-39
2021/12/23 05:18:26;;;;;;;6.22;5.13;;;19.70;28.90;;;;;;5117295;28;20488;-40
2021/12/23 05:20:52;;;;;;;6.75;5.25;;;19.80;28.90;;;;;;5117070;28;20493;-41
2021/12/23 05:23:18;;;;;;;6.80;5.35;;;19.80;28.80;;;;;;5082968;28;20023;-39
2021/12/23 05:25:45;;;;;;;7.25;5.60;;;19.90;28.80;;;;;;5117646;28;20024;-39
2021/12/23 05:28:11;;;;;;;6.32;4.95;;;19.90;28.80;;;;;;5118452;28;20470;-44
2021/12/23 05:30:36;;;;;;;7.05;5.32;;;19.90;28.80;;;;;;5101291;28;20012;-39
2021/12/23 05:33:03;;;;;;;6.80;5.40;;;19.90;28.80;;;;;;5118982;28;20043;-39
2021/12/23 05:35:29;;;;;;;6.07;4.90;;;20.00;28.80;;;;;;5100687;28;20008;-40
2021/12/23 05:37:55;;;;;;;6.47;4.97;;;20.00;29.20;;;;;;5083763;28;20030;-39
2021/12/23 05:40:22;;;;;;;6.43;5.03;;;20.00;28.70;;;;;;5119023;28;20374;-41
2021/12/23 05:42:48;;;;;;;6.40;4.95;;;20.00;28.70;;;;;;5118660;28;20016;-40
2021/12/23 05:45:15;;;;;;;5.72;4.65;;;20.10;28.80;;;;;;5118308;28;20458;-47
2021/12/23 05:47:41;;;;;;;5.90;5.20;;;20.10;28.70;;;;;;5100353;28;20469;-41
2021/12/23 05:50:08;;;;;;;6.10;4.93;;;20.10;28.60;;;;;;5118316;28;20051;-46
2021/12/23 05:52:35;;;;;;;5.82;4.93;;;20.20;28.60;;;;;;5117861;28;20015;-40
2021/12/23 05:55:04;;;;;;;6.72;5.20;;;20.20;28.50;;;;;;5117917;28;20071;-39
2021/12/23 05:57:47;;;;;;;5.88;4.82;;;20.30;28.60;;;;;;5115157;28;20024;-44
2021/12/23 06:00:18;;;;;;;7.07;5.28;;;20.20;28.60;;;;;;5116529;28;20075;-43
2021/12/23 06:02:44;;;;;;;6.22;5.18;;;20.20;28.60;;;;;;5116328;28;20071;-40
2021/12/23 06:05:10;;;;;;;7.13;5.18;;;20.20;28.60;;;;;;5115998;28;20160;-40
2021/12/23 06:07:37;;;;;;;6.35;5.07;;;20.20;28.50;;;;;;5115747;28;20031;-39
2021/12/23 06:10:04;;;;;;;6.07;4.90;;;20.30;28.60;;;;;;5115577;28;20478;-43
2021/12/23 06:12:32;;;;;;;6.32;5.10;;;20.30;28.50;;;;;;5115986;28;20466;-41
2021/12/23 06:14:58;;;;;;;7.05;5.32;;;20.30;28.50;;;;;;5116109;28;20022;-41
2021/12/23 06:17:24;;;;;;;6.07;5.00;;;20.30;28.50;;;;;;5116324;28;20091;-39
2021/12/23 06:19:51;;;;;;;6.55;5.05;;;20.40;28.50;;;;;;5117613;28;20482;-42
2021/12/23 06:22:18;;;;;;;6.93;5.25;;;20.40;28.50;;;;;;5117428;28;20023;-39
2021/12/23 06:24:47;;;;;;;6.90;5.40;;;20.40;28.40;;;;;;5117213;28;20047;-41
2021/12/23 06:27:13;;;;;;;7.15;5.45;;;20.40;28.40;;;;;;5099298;28;20031;-44
2021/12/23 06:29:39;;;;;;;6.30;5.20;;;20.40;28.50;;;;;;5117988;28;20023;-40
2021/12/23 06:32:05;;;;;;;6.93;5.35;;;20.40;28.50;;;;;;5117304;28;20004;-40
2021/12/23 06:34:31;;;;;;;6.60;5.25;;;20.40;28.50;;;;;;5118292;28;20026;-40
2021/12/23 06:36:57;;;;;;;6.60;5.15;;;20.40;28.40;;;;;;5116687;28;20012;-40
2021/12/23 06:39:22;;;;;;;6.80;5.50;;;20.50;28.50;;;;;;5115917;28;20636;-42
2021/12/23 06:41:48;;;;;;;7.40;5.20;;;20.50;28.80;;;;;;5114880;28;20035;-39
2021/12/23 06:44:15;;;;;;;6.43;5.07;;;20.50;28.40;;;;;;5097731;28;20023;-42
2021/12/23 06:46:40;;;;;;;7.28;5.53;;;20.50;28.30;;;;;;5115542;28;20114;-40
2021/12/23 06:49:07;;;;;;;6.38;5.22;;;20.60;28.40;;;;;;5115822;28;20095;-40
2021/12/23 06:51:33;;;;;;;6.15;5.40;;;20.60;28.40;;;;;;5115970;28;20011;-42
2021/12/23 06:54:01;;;;;;;6.45;5.10;;;20.60;28.30;;;;;;5115057;28;20015;-40
2021/12/23 06:56:27;;;;;;;7.72;5.35;;;20.60;28.40;;;;;;5115139;28;20099;-39
2021/12/23 06:58:52;;;;;;;6.28;5.38;;;20.50;28.40;;;;;;5116066;28;20046;-40
2021/12/23 07:01:20;;;;;;;6.63;4.90;;;20.60;28.40;;;;;;5116700;28;20454;-39
2021/12/23 07:06:26;;;;;;;6.88;5.40;;;20.60;28.40;;;;;;5119767;28;20019;-41
2021/12/23 07:08:54;;;;;;;6.07;4.85;;;20.60;28.40;;;;;;5119194;28;20489;-41
2021/12/23 07:11:20;;;;;;;6.20;4.88;;;20.70;28.40;;;;;;5100842;28;20022;-40
2021/12/23 07:13:46;;;;;;;6.72;5.22;;;20.60;28.30;;;;;;5118273;28;20020;-38
2021/12/23 07:16:13;;;;;;;6.53;5.28;;;20.70;28.30;;;;;;5119213;28;20055;-40
2021/12/23 07:18:39;;;;;;;7.10;5.22;;;20.70;28.30;;;;;;5083721;28;20012;-40
2021/12/23 07:21:05;;;;;;;8.15;5.60;;;20.80;28.30;;;;;;5118214;28;20016;-44
2021/12/23 07:23:31;;;;;;;6.68;5.20;;;20.70;28.30;;;;;;5100165;28;20462;-39
2021/12/23 07:25:57;;;;;;;7.15;5.70;;;20.70;28.30;;;;;;5100932;28;20019;-42
2021/12/23 07:28:23;;;;;;;6.78;5.05;;;20.70;28.30;;;;;;5100172;28;20389;-40
2021/12/23 07:30:49;;;;;;;6.47;5.38;;;20.70;28.30;;;;;;5100875;28;20019;-39
2021/12/23 07:33:15;;;;;;;8.77;5.80;;;20.70;28.30;;;;;;5118650;28;20018;-40
2021/12/23 07:35:41;;;;;;;6.93;5.07;;;20.70;28.30;;;;;;5119074;28;20480;-39
2021/12/23 07:38:07;;;;;;;7.95;5.45;;;20.70;28.30;;;;;;5119371;28;20012;-40
2021/12/23 07:40:33;;;;;;;7.13;5.43;;;20.70;28.30;;;;;;5100219;28;20028;-42
2021/12/23 07:43:09;;;;;;;8.07;5.68;;;20.70;28.30;;;;;;5117780;28;20124;-39
2021/12/23 07:45:35;;;;;;;6.28;5.00;;;20.80;28.30;;;;;;5117887;28;20564;-42
2021/12/23 07:48:01;;;;;;;6.93;4.95;;;20.80;28.30;;;;;;5118631;28;20032;-41
2021/12/23 07:50:27;;;;;;;7.13;5.15;;;20.80;28.30;;;;;;5118061;28;20462;-41
2021/12/23 07:52:52;;;;;;;8.25;5.18;;;20.80;28.30;;;;;;5118014;28;20037;-41
2021/12/23 07:55:20;;;;;;;7.20;5.50;;;20.80;28.30;;;;;;5117859;28;20012;-40
2021/12/23 07:57:45;;;;;;;8.55;5.63;;;20.80;28.40;;;;;;5117396;28;20024;-40
2021/12/23 08:00:12;;;;;;;8.07;5.70;;;20.80;28.40;;;;;;5117696;28;20057;-41
2021/12/23 08:02:38;;;;;;;7.35;5.28;;;20.80;28.40;;;;;;5117504;28;20083;-39
2021/12/23 08:05:04;;;;;;;7.15;5.20;;;20.80;28.40;;;;;;5117814;28;20023;-39
2021/12/23 08:07:30;;;;;;;8.50;5.28;;;20.80;28.30;;;;;;5117535;28;20382;-40
2021/12/23 08:09:56;;;;;;;7.75;5.10;;;20.90;28.30;;;;;;5118140;28;20016;-40
2021/12/23 08:12:22;;;;;;;6.35;5.15;;;20.90;28.30;;;;;;5118235;28;20088;-42
2021/12/23 08:14:48;;;;;;;8.75;5.35;;;20.90;28.30;;;;;;5116968;28;20450;-40
2021/12/23 08:17:13;;;;;;;6.78;5.55;;;20.90;28.40;;;;;;5118086;28;20139;-44
2021/12/23 08:19:39;;;;;;;9.30;5.30;;;20.90;28.80;;;;;;5101145;28;20470;-45
2021/12/23 08:22:06;;;;;;;6.25;5.25;;;20.90;28.40;;;;;;5120053;28;20056;-41
2021/12/23 08:24:31;;;;;;;8.77;5.43;;;20.90;28.40;;;;;;5118805;28;20027;-39
2021/12/23 08:26:57;;;;;;;10.13;5.60;;;20.90;28.40;;;;;;5119051;28;20027;-41
2021/12/23 08:29:24;;;;;;;8.40;5.38;;;20.90;28.40;;;;;;5101137;28;20073;-42
2021/12/23 08:31:53;;;;;;;7.65;5.50;;;21.00;28.40;;;;;;5101264;28;20098;-42
2021/12/23 08:34:20;;;;;;;6.75;5.53;;;21.00;28.40;;;;;;5118526;28;20012;-43
2021/12/23 08:36:46;;;;;;;7.75;5.63;;;21.00;28.40;;;;;;5119049;28;20026;-40
2021/12/23 08:39:13;;;;;;;7.60;5.47;;;21.00;28.40;;;;;;5118331;28;20486;-42
2021/12/23 08:41:39;;;;;;;8.00;5.22;;;21.00;28.30;;;;;;5101142;28;20019;-40
2021/12/23 08:44:04;;;;;;;7.97;5.28;;;21.00;28.40;;;;;;5118986;28;20059;-40
2021/12/23 08:46:30;;;;;;;8.50;4.97;;;21.00;28.40;;;;;;5119215;28;20024;-40
2021/12/23 08:48:56;;;;;;;7.00;5.28;;;21.00;28.40;;;;;;5101604;28;20020;-41
2021/12/23 08:51:23;;;;;;;6.78;5.57;;;21.00;28.40;;;;;;5118983;28;20020;-40
2021/12/23 08:53:48;;;;;;;7.72;5.47;;;21.00;28.40;;;;;;5119199;28;20064;-41
2021/12/23 08:56:14;;;;;;;7.05;5.68;;;21.00;28.40;;;;;;5117778;28;20023;-43
2021/12/23 08:58:40;;;;;;;6.82;5.10;;;21.00;28.40;;;;;;5098176;28;20019;-41
2021/12/23 09:01:06;;;;;;;6.78;5.00;;;21.10;28.40;;;;;;5116961;28;20015;-40
2021/12/23 09:03:32;;;;;;;7.80;5.45;;;21.10;28.40;;;;;;5098924;28;20023;-40
2021/12/23 09:05:58;;;;;;;7.88;5.57;;;21.10;28.30;;;;;;5116941;28;20020;-40
2021/12/23 09:08:25;;;;;;;6.88;5.00;;;21.10;28.30;;;;;;5117224;28;20019;-40
2021/12/23 09:10:52;;;;;;;6.60;5.22;;;21.20;28.30;;;;;;5116673;28;20072;-40
2021/12/23 09:13:19;;;;;;;8.18;5.43;;;21.20;28.30;;;;;;5116158;28;20461;-40
2021/12/23 09:15:45;;;;;;;6.75;4.90;;;21.20;28.30;;;;;;5115801;28;20107;-41
2021/12/23 09:18:12;;;;;;;7.47;5.28;;;21.20;28.30;;;;;;5098055;28;20481;-41
2021/12/23 09:20:37;;;;;;;8.93;5.30;;;21.20;28.30;;;;;;5115526;28;20097;-40
2021/12/23 09:23:06;;;;;;;7.95;5.45;;;21.20;28.30;;;;;;5097561;28;20114;-40
2021/12/23 09:25:33;;;;;;;6.35;5.07;;;21.20;28.70;;;;;;5115796;28;20020;-42
2021/12/23 09:33:18;;;;;;;7.57;5.03;;;21.30;28.30;;;;;;5117178;28;20030;-39
2021/12/23 09:35:44;;;;;;;6.93;5.28;;;21.30;28.70;;;;;;5098827;28;20016;-40
2021/12/23 09:38:10;;;;;;;7.20;5.43;;;21.30;28.30;;;;;;5098836;28;20019;-40
2021/12/23 09:40:36;;;;;;;7.13;4.97;;;21.20;28.30;;;;;;5117083;28;20015;-41
2021/12/23 09:43:26;;;;;;;7.22;5.05;;;21.30;28.40;;;;;;5116926;28;20016;-42
2021/12/23 09:45:52;;;;;;;6.88;5.30;;;21.30;28.40;;;;;;5117750;28;20420;-43
2021/12/23 09:48:21;;;;;;;6.97;5.20;;;21.20;28.30;;;;;;5099749;28;20023;-40
2021/12/23 09:50:47;;;;;;;6.85;4.68;;;21.30;28.30;;;;;;5117064;28;20024;-40
2021/12/23 09:53:15;;;;;;;6.78;5.03;;;21.30;28.70;;;;;;5117097;28;20024;-41
2021/12/23 09:55:41;;;;;;;7.75;5.10;;;21.30;28.30;;;;;;5116834;28;20014;-42
2021/12/23 09:58:08;;;;;;;6.20;5.00;;;21.40;28.30;;;;;;5117754;28;20028;-40
2021/12/23 10:00:37;;;;;;;6.55;4.82;;;21.40;28.20;;;;;;5117277;28;20553;-40
2021/12/23 10:03:03;;;;;;;7.05;4.63;;;21.40;28.20;;;;;;5117280;28;20071;-41
2021/12/23 10:05:30;;;;;;;6.05;4.90;;;21.50;28.20;;;;;;5082199;28;20024;-44
2021/12/23 10:07:56;;;;;;;5.85;4.80;;;21.50;28.30;;;;;;5116807;28;20019;-45
2021/12/23 10:10:33;;;;;;;8.18;4.80;;;21.40;28.20;;;;;;5117153;28;20386;-42
2021/12/23 10:37:17;;;;;;;6.30;4.70;;;21.60;28.20;;;;;;5098496;28;20036;-41
2021/12/23 10:40:12;;;;;;;5.35;4.38;;;21.50;28.20;;;;;;5119485;28;20032;-44
2021/12/23 10:42:38;;;;;;;6.70;4.90;;;21.50;28.20;;;;;;5098777;28;20027;-41
2021/12/23 10:45:10;;;;;;;7.20;4.93;;;21.60;28.20;;;;;;5102390;28;20072;-43
2021/12/23 10:47:42;;;;;;;7.13;4.60;;;21.60;28.20;;;;;;5120144;28;20095;-41
2021/12/23 10:50:51;;;;;;;6.57;4.97;;;21.60;28.20;;;;;;5102609;28;20015;-41
2021/12/23 10:59:10;;;;;;;6.35;4.93;;;21.60;28.20;;;;;;5119338;28;20118;-41
2021/12/23 11:01:57;;;;;;;7.35;4.50;;;21.60;28.20;;;;;;5119319;28;20129;-39
2021/12/23 11:04:23;;;;;;;6.85;4.68;;;21.60;28.20;;;;;;5118933;28;20020;-41
2021/12/23 11:06:56;;;;;;;5.95;4.80;;;21.60;28.20;;;;;;5100532;28;20046;-40
2021/12/23 11:36:44;;;;;;;5.70;4.40;;;21.80;28.30;;;;;;5118269;28;20489;-41
2021/12/23 11:39:31;;;;;;;5.95;4.53;;;21.80;28.20;;;;;;5103851;28;20482;-40
2021/12/23 11:42:04;;;;;;;5.85;4.30;;;21.80;28.20;;;;;;5118900;28;20044;-40
2021/12/23 11:44:31;;;;;;;5.75;4.80;;;21.90;28.20;;;;;;5119145;28;20020;-39
2021/12/23 11:47:01;;;;;;;5.75;4.45;;;21.90;28.20;;;;;;5118973;28;20043;-40
2021/12/23 11:49:27;;;;;;;5.47;4.53;;;21.90;28.20;;;;;;5118815;28;20004;-38
2021/12/23 11:51:55;;;;;;;7.57;4.85;;;21.90;28.20;;;;;;5119421;28;20027;-39
2021/12/23 11:54:21;;;;;;;7.38;4.53;;;21.90;28.20;;;;;;5101009;28;20012;-40
2021/12/23 11:56:48;;;;;;;5.97;4.63;;;21.90;28.30;;;;;;5100707;28;20156;-38
2021/12/23 11:59:14;;;;;;;5.80;4.45;;;21.90;28.20;;;;;;5120053;28;20019;-38
2021/12/23 12:01:58;;;;;;;6.55;4.68;;;22.00;28.20;;;;;;5101619;28;20023;-38
2021/12/23 12:04:27;;;;;;;6.93;4.75;;;21.90;28.20;;;;;;5103652;28;20481;-39
2021/12/23 12:06:53;;;;;;;5.70;4.38;;;22.00;28.20;;;;;;5120121;28;20037;-39
2021/12/23 12:09:26;;;;;;;5.93;4.72;;;22.10;28.20;;;;;;5120218;28;20012;-39
2021/12/23 12:11:58;;;;;;;7.88;4.57;;;22.10;28.20;;;;;;5101428;28;20045;-39
2021/12/23 12:14:38;;;;;;;6.28;5.05;;;22.10;28.20;;;;;;5119457;28;20509;-38
2021/12/23 12:17:26;;;;;;;6.18;4.63;;;22.10;28.20;;;;;;5119149;28;20039;-39
2021/12/23 12:20:21;;;;;;;6.78;4.90;;;22.00;28.20;;;;;;5119391;28;20024;-39
2021/12/23 12:23:00;;;;;;;8.35;4.28;;;22.10;28.30;;;;;;5118904;28;20039;-39
2021/12/23 12:25:26;;;;;;;5.80;4.50;;;22.10;28.30;;;;;;5119816;28;20028;-39
2021/12/23 12:28:12;;;;;;;5.68;5.07;;;22.00;28.30;;;;;;5118994;28;20019;-39
2021/12/23 12:30:51;;;;;;;5.72;4.93;;;22.10;28.20;;;;;;5118857;28;20019;-38
2021/12/23 12:33:23;;;;;;;5.53;4.23;;;22.10;28.20;;;;;;5119280;28;20015;-45
2021/12/23 12:35:58;;;;;;;7.03;4.57;;;22.10;28.20;;;;;;5119033;28;20254;-39
2021/12/23 12:38:26;;;;;;;5.88;4.53;;;22.10;28.20;;;;;;5118937;28;20019;-39
2021/12/23 12:40:57;;;;;;;6.25;4.68;;;22.10;28.30;;;;;;5118675;28;20012;-38
2021/12/23 12:43:41;;;;;;;6.10;4.70;;;22.10;28.30;;;;;;5118384;28;20519;-38
2021/12/23 12:46:07;;;;;;;8.18;5.43;;;22.10;28.30;;;;;;5118355;28;20004;-38
2021/12/23 12:48:58;;;;;;;5.53;4.90;;;22.00;28.40;;;;;;5117745;28;20038;-38
2021/12/23 12:51:26;;;;;;;6.05;4.43;;;22.10;28.30;;;;;;5118771;28;20015;-39
2021/12/23 12:54:02;;;;;;;5.85;4.60;;;22.10;28.30;;;;;;5118777;28;20027;-41
2021/12/23 12:56:28;;;;;;;6.28;4.70;;;22.10;28.30;;;;;;5118452;28;20015;-39
2021/12/23 12:59:08;;;;;;;6.28;4.68;;;22.10;28.30;;;;;;5118666;28;20020;-39
2021/12/23 13:01:33;;;;;;;6.85;5.13;;;22.20;28.30;;;;;;5117548;28;20351;-40
2021/12/23 13:04:00;;;;;;;6.82;4.70;;;22.10;28.30;;;;;;5117151;28;20012;-41
2021/12/23 13:06:41;;;;;;;6.97;4.72;;;22.10;28.30;;;;;;5118060;28;20051;-40
2021/12/23 13:09:15;;;;;;;6.30;4.88;;;22.10;28.40;;;;;;5118200;28;20024;-40
2021/12/23 13:11:44;;;;;;;7.32;4.75;;;22.10;28.40;;;;;;5118027;28;20419;-40
2021/12/23 13:14:14;;;;;;;5.90;4.68;;;22.10;28.40;;;;;;5100109;28;20106;-38
2021/12/23 13:16:56;;;;;;;7.45;5.15;;;22.10;28.40;;;;;;5117586;28;20035;-38
2021/12/23 13:19:34;;;;;;;5.78;4.40;;;22.20;28.40;;;;;;5117968;28;20007;-38
2021/12/23 13:21:59;;;;;;;6.97;4.75;;;22.20;28.40;;;;;;5118866;28;20008;-39
2021/12/23 13:24:27;;;;;;;7.65;4.85;;;22.20;28.40;;;;;;5118540;28;20008;-39
2021/12/23 13:26:54;;;;;;;6.57;4.82;;;22.20;28.40;;;;;;5118190;28;20020;-38
2021/12/23 13:29:26;;;;;;;5.88;4.57;;;22.20;28.40;;;;;;5117471;28;20027;-38
2021/12/23 13:31:52;;;;;;;6.90;5.22;;;22.20;28.50;;;;;;5117634;28;20020;-38
2021/12/23 13:34:21;;;;;;;7.20;4.45;;;22.20;28.50;;;;;;5099436;28;20542;-39
2021/12/23 13:36:49;;;;;;;6.30;4.80;;;22.20;28.50;;;;;;5117120;28;20015;-38
2021/12/23 13:39:20;;;;;;;7.57;4.90;;;22.20;28.50;;;;;;5117275;28;20004;-39
2021/12/23 13:41:53;;;;;;;6.13;4.72;;;22.20;28.50;;;;;;5115986;28;20012;-37
2021/12/23 13:44:24;;;;;;;5.82;4.75;;;22.20;28.50;;;;;;5097052;28;20023;-38
2021/12/23 13:47:00;;;;;;;7.22;4.78;;;22.20;28.50;;;;;;5114653;28;20008;-38
2021/12/23 13:49:32;;;;;;;7.78;5.00;;;22.30;28.50;;;;;;5114989;28;20024;-38
2021/12/23 13:51:57;;;;;;;8.48;5.05;;;22.30;28.50;;;;;;5114624;28;20102;-38
2021/12/23 13:54:23;;;;;;;7.80;4.80;;;22.20;28.50;;;;;;5113888;28;20058;-39
2021/12/23 13:56:50;;;;;;;7.47;4.43;;;22.20;28.60;;;;;;5096132;28;20014;-39
2021/12/23 13:59:24;;;;;;;7.00;4.90;;;22.20;28.60;;;;;;5114402;28;20118;-43
2021/12/23 14:01:58;;;;;;;8.98;5.00;;;22.20;28.70;;;;;;5113814;28;20023;-40